sensor_id;sensor_type;location;lat;lon;timestamp;P1;durP1;ratioP1;P2;durP2;ratioP2
11984;SDS011;6052;53.246;10.368;2024-01-11T00:00:54;20.87;;;8.97;;
11984;SDS011;6052;53.246;10.368;2024-01-11T00:03:25;17.57;;;8.53;;
11984;SDS011;6052;53.246;10.368;2024-01-11T00:05:58;19.03;;;8.70;;
11984;SDS011;6052;53.246;10.368;2024-01-11T00:08:30;17.97;;;8.20;;
11984;SDS011;6052;53.246;10.368;2024-01-11T00:11:00;17.40;;;8.97;;
11984;SDS011;6052;53.246;10.368;2024-01-11T00:13:30;16.73;;;8.93;;
11984;SDS011;6052;53.246;10.368;2024-01-11T00:16:00;17.63;;;9.07;;
11984;SDS011;6052;53.246;10.368;2024-01-11T00:18:29;18.70;;;9.27;;
11984;SDS011;6052;53.246;10.368;2024-01-11T00:21:02;20.23;;;9.90;;
11984;SDS011;6052;53.246;10.368;2024-01-11T00:23:31;18.37;;;8.40;;
11984;SDS011;6052;53.246;10.368;2024-01-11T00:26:01;15.00;;;7.63;;
11984;SDS011;6052;53.246;10.368;2024-01-11T00:28:31;14.43;;;7.83;;
11984;SDS011;6052;53.246;10.368;2024-01-11T00:31:00;17.37;;;8.03;;
11984;SDS011;6052;53.246;10.368;2024-01-11T00:33:30;12.50;;;7.87;;
11984;SDS011;6052;53.246;10.368;2024-01-11T00:36:03;16.13;;;7.40;;
11984;SDS011;6052;53.246;10.368;2024-01-11T00:38:33;12.43;;;6.77;;
11984;SDS011;6052;53.246;10.368;2024-01-11T00:41:03;12.30;;;6.67;;
11984;SDS011;6052;53.246;10.368;2024-01-11T00:43:32;13.70;;;7.03;;
11984;SDS011;6052;53.246;10.368;2024-01-11T00:46:02;13.43;;;6.90;;
11984;SDS011;6052;53.246;10.368;2024-01-11T00:48:32;13.47;;;7.13;;
11984;SDS011;6052;53.246;10.368;2024-01-11T00:51:06;11.97;;;6.63;;
11984;SDS011;6052;53.246;10.368;2024-01-11T00:53:35;14.90;;;7.40;;
11984;SDS011;6052;53.246;10.368;2024-01-11T00:56:05;12.23;;;6.13;;
11984;SDS011;6052;53.246;10.368;2024-01-11T00:58:35;14.00;;;6.93;;
11984;SDS011;6052;53.246;10.368;2024-01-11T01:01:08;11.53;;;6.63;;
11984;SDS011;6052;53.246;10.368;2024-01-11T01:03:38;13.77;;;7.00;;
11984;SDS011;6052;53.246;10.368;2024-01-11T01:06:11;14.60;;;8.40;;
11984;SDS011;6052;53.246;10.368;2024-01-11T01:08:40;16.87;;;7.53;;
11984;SDS011;6052;53.246;10.368;2024-01-11T01:11:10;11.23;;;6.93;;
11984;SDS011;6052;53.246;10.368;2024-01-11T01:13:40;14.63;;;7.83;;
11984;SDS011;6052;53.246;10.368;2024-01-11T01:16:09;12.97;;;6.83;;
11984;SDS011;6052;53.246;10.368;2024-01-11T01:18:39;14.47;;;7.60;;
11984;SDS011;6052;53.246;10.368;2024-01-11T01:21:12;13.40;;;7.13;;
11984;SDS011;6052;53.246;10.368;2024-01-11T01:23:41;15.90;;;8.07;;
11984;SDS011;6052;53.246;10.368;2024-01-11T01:26:11;18.27;;;8.53;;
11984;SDS011;6052;53.246;10.368;2024-01-11T01:28:41;14.73;;;7.63;;
11984;SDS011;6052;53.246;10.368;2024-01-11T01:31:11;15.67;;;7.30;;
11984;SDS011;6052;53.246;10.368;2024-01-11T01:33:40;18.57;;;7.63;;
11984;SDS011;6052;53.246;10.368;2024-01-11T01:36:13;19.63;;;7.90;;
11984;SDS011;6052;53.246;10.368;2024-01-11T01:38:42;15.93;;;8.63;;
11984;SDS011;6052;53.246;10.368;2024-01-11T01:41:13;16.27;;;7.93;;
11984;SDS011;6052;53.246;10.368;2024-01-11T01:43:42;16.93;;;8.93;;
11984;SDS011;6052;53.246;10.368;2024-01-11T01:46:12;16.33;;;8.17;;
11984;SDS011;6052;53.246;10.368;2024-01-11T01:48:48;16.00;;;9.00;;
11984;SDS011;6052;53.246;10.368;2024-01-11T01:51:21;17.90;;;8.43;;
11984;SDS011;6052;53.246;10.368;2024-01-11T01:53:52;16.40;;;8.33;;
11984;SDS011;6052;53.246;10.368;2024-01-11T01:56:22;18.37;;;9.13;;
11984;SDS011;6052;53.246;10.368;2024-01-11T01:58:53;15.60;;;8.07;;
11984;SDS011;6052;53.246;10.368;2024-01-11T02:01:23;17.43;;;8.27;;
11984;SDS011;6052;53.246;10.368;2024-01-11T02:03:54;15.63;;;8.23;;
11984;SDS011;6052;53.246;10.368;2024-01-11T02:06:27;13.60;;;8.17;;
11984;SDS011;6052;53.246;10.368;2024-01-11T02:09:01;16.37;;;8.27;;
11984;SDS011;6052;53.246;10.368;2024-01-11T02:11:32;13.53;;;7.53;;
11984;SDS011;6052;53.246;10.368;2024-01-11T02:14:03;18.27;;;8.47;;
11984;SDS011;6052;53.246;10.368;2024-01-11T02:16:33;15.93;;;8.07;;
11984;SDS011;6052;53.246;10.368;2024-01-11T02:19:03;14.67;;;9.37;;
11984;SDS011;6052;53.246;10.368;2024-01-11T02:21:38;15.10;;;8.07;;
11984;SDS011;6052;53.246;10.368;2024-01-11T02:24:13;15.50;;;7.73;;
11984;SDS011;6052;53.246;10.368;2024-01-11T02:26:57;16.10;;;7.97;;
11984;SDS011;6052;53.246;10.368;2024-01-11T02:29:28;14.93;;;8.33;;
11984;SDS011;6052;53.246;10.368;2024-01-11T02:31:59;18.00;;;8.30;;
11984;SDS011;6052;53.246;10.368;2024-01-11T02:34:31;16.10;;;8.10;;
11984;SDS011;6052;53.246;10.368;2024-01-11T02:37:02;18.13;;;9.37;;
11984;SDS011;6052;53.246;10.368;2024-01-11T02:39:36;17.77;;;8.50;;
11984;SDS011;6052;53.246;10.368;2024-01-11T02:42:06;16.93;;;8.77;;
11984;SDS011;6052;53.246;10.368;2024-01-11T02:44:36;18.33;;;8.90;;
11984;SDS011;6052;53.246;10.368;2024-01-11T02:47:05;14.13;;;8.20;;
11984;SDS011;6052;53.246;10.368;2024-01-11T02:49:35;14.00;;;8.27;;
11984;SDS011;6052;53.246;10.368;2024-01-11T02:52:10;20.47;;;8.97;;
11984;SDS011;6052;53.246;10.368;2024-01-11T02:54:42;17.10;;;8.50;;
11984;SDS011;6052;53.246;10.368;2024-01-11T02:57:11;17.03;;;8.90;;
11984;SDS011;6052;53.246;10.368;2024-01-11T02:59:42;20.33;;;8.87;;
11984;SDS011;6052;53.246;10.368;2024-01-11T03:02:12;15.40;;;8.33;;
11984;SDS011;6052;53.246;10.368;2024-01-11T03:04:42;17.63;;;8.87;;
11984;SDS011;6052;53.246;10.368;2024-01-11T03:07:11;16.27;;;8.87;;
11984;SDS011;6052;53.246;10.368;2024-01-11T03:09:44;17.47;;;8.70;;
11984;SDS011;6052;53.246;10.368;2024-01-11T03:12:13;16.80;;;8.80;;
11984;SDS011;6052;53.246;10.368;2024-01-11T03:14:43;17.37;;;9.43;;
11984;SDS011;6052;53.246;10.368;2024-01-11T03:17:12;21.37;;;9.83;;
11984;SDS011;6052;53.246;10.368;2024-01-11T03:19:42;17.90;;;8.70;;
11984;SDS011;6052;53.246;10.368;2024-01-11T03:22:11;18.70;;;9.37;;
11984;SDS011;6052;53.246;10.368;2024-01-11T03:24:44;15.90;;;8.90;;
11984;SDS011;6052;53.246;10.368;2024-01-11T03:27:13;18.90;;;8.80;;
11984;SDS011;6052;53.246;10.368;2024-01-11T03:29:43;23.80;;;9.17;;
11984;SDS011;6052;53.246;10.368;2024-01-11T03:32:13;20.67;;;9.23;;
11984;SDS011;6052;53.246;10.368;2024-01-11T03:34:42;19.93;;;9.27;;
11984;SDS011;6052;53.246;10.368;2024-01-11T03:37:12;19.17;;;9.20;;
11984;SDS011;6052;53.246;10.368;2024-01-11T03:39:45;19.10;;;10.13;;
11984;SDS011;6052;53.246;10.368;2024-01-11T03:42:15;18.07;;;8.80;;
11984;SDS011;6052;53.246;10.368;2024-01-11T03:44:44;20.13;;;9.77;;
11984;SDS011;6052;53.246;10.368;2024-01-11T03:47:14;20.73;;;8.47;;
11984;SDS011;6052;53.246;10.368;2024-01-11T03:49:45;17.50;;;9.30;;
11984;SDS011;6052;53.246;10.368;2024-01-11T03:52:14;18.97;;;9.00;;
11984;SDS011;6052;53.246;10.368;2024-01-11T03:54:46;19.97;;;9.33;;
11984;SDS011;6052;53.246;10.368;2024-01-11T03:57:16;18.80;;;8.87;;
11984;SDS011;6052;53.246;10.368;2024-01-11T03:59:45;21.80;;;10.00;;
11984;SDS011;6052;53.246;10.368;2024-01-11T04:02:15;22.33;;;9.03;;
11984;SDS011;6052;53.246;10.368;2024-01-11T04:04:45;19.23;;;10.07;;
11984;SDS011;6052;53.246;10.368;2024-01-11T04:07:14;20.47;;;10.23;;
11984;SDS011;6052;53.246;10.368;2024-01-11T04:09:46;20.87;;;9.13;;
11984;SDS011;6052;53.246;10.368;2024-01-11T04:12:16;17.43;;;9.43;;
11984;SDS011;6052;53.246;10.368;2024-01-11T04:14:45;19.83;;;9.33;;
11984;SDS011;6052;53.246;10.368;2024-01-11T04:17:15;20.93;;;10.37;;
11984;SDS011;6052;53.246;10.368;2024-01-11T04:19:45;22.43;;;9.93;;
11984;SDS011;6052;53.246;10.368;2024-01-11T04:22:14;20.10;;;9.47;;
11984;SDS011;6052;53.246;10.368;2024-01-11T04:24:46;20.57;;;9.93;;
11984;SDS011;6052;53.246;10.368;2024-01-11T04:27:16;20.83;;;9.90;;
11984;SDS011;6052;53.246;10.368;2024-01-11T04:29:45;18.27;;;8.50;;
11984;SDS011;6052;53.246;10.368;2024-01-11T04:32:15;20.07;;;9.13;;
11984;SDS011;6052;53.246;10.368;2024-01-11T04:34:45;22.33;;;10.07;;
11984;SDS011;6052;53.246;10.368;2024-01-11T04:37:14;16.87;;;9.30;;
11984;SDS011;6052;53.246;10.368;2024-01-11T04:39:46;25.70;;;11.33;;
11984;SDS011;6052;53.246;10.368;2024-01-11T04:42:16;22.30;;;9.90;;
11984;SDS011;6052;53.246;10.368;2024-01-11T04:44:46;26.17;;;10.97;;
11984;SDS011;6052;53.246;10.368;2024-01-11T04:47:15;24.30;;;11.33;;
11984;SDS011;6052;53.246;10.368;2024-01-11T04:49:45;21.77;;;9.70;;
11984;SDS011;6052;53.246;10.368;2024-01-11T04:52:14;27.00;;;11.70;;
11984;SDS011;6052;53.246;10.368;2024-01-11T04:54:47;25.63;;;9.90;;
11984;SDS011;6052;53.246;10.368;2024-01-11T04:57:16;22.03;;;10.97;;
11984;SDS011;6052;53.246;10.368;2024-01-11T04:59:46;21.67;;;10.97;;
11984;SDS011;6052;53.246;10.368;2024-01-11T05:02:15;20.67;;;10.17;;
11984;SDS011;6052;53.246;10.368;2024-01-11T05:04:45;26.17;;;12.23;;
11984;SDS011;6052;53.246;10.368;2024-01-11T05:07:14;26.13;;;11.40;;
11984;SDS011;6052;53.246;10.368;2024-01-11T05:09:47;24.77;;;11.13;;
11984;SDS011;6052;53.246;10.368;2024-01-11T05:12:16;25.43;;;11.70;;
11984;SDS011;6052;53.246;10.368;2024-01-11T05:14:46;25.90;;;10.70;;
11984;SDS011;6052;53.246;10.368;2024-01-11T05:17:15;24.83;;;11.73;;
11984;SDS011;6052;53.246;10.368;2024-01-11T05:19:45;26.00;;;12.57;;
11984;SDS011;6052;53.246;10.368;2024-01-11T05:22:14;25.10;;;11.40;;
11984;SDS011;6052;53.246;10.368;2024-01-11T05:24:46;25.57;;;11.37;;
11984;SDS011;6052;53.246;10.368;2024-01-11T05:27:16;24.80;;;12.40;;
11984;SDS011;6052;53.246;10.368;2024-01-11T05:29:46;26.37;;;11.60;;
11984;SDS011;6052;53.246;10.368;2024-01-11T05:32:15;25.23;;;12.83;;
11984;SDS011;6052;53.246;10.368;2024-01-11T05:34:45;24.10;;;11.67;;
11984;SDS011;6052;53.246;10.368;2024-01-11T05:37:14;28.93;;;12.87;;
11984;SDS011;6052;53.246;10.368;2024-01-11T05:39:47;30.70;;;13.67;;
11984;SDS011;6052;53.246;10.368;2024-01-11T05:42:16;28.87;;;13.43;;
11984;SDS011;6052;53.246;10.368;2024-01-11T05:44:46;30.97;;;11.70;;
11984;SDS011;6052;53.246;10.368;2024-01-11T05:47:15;26.77;;;12.93;;
11984;SDS011;6052;53.246;10.368;2024-01-11T05:49:45;29.03;;;13.17;;
11984;SDS011;6052;53.246;10.368;2024-01-11T05:52:14;28.30;;;11.90;;
11984;SDS011;6052;53.246;10.368;2024-01-11T05:54:47;22.23;;;10.87;;
11984;SDS011;6052;53.246;10.368;2024-01-11T05:57:16;27.13;;;12.67;;
11984;SDS011;6052;53.246;10.368;2024-01-11T05:59:46;32.33;;;12.70;;
11984;SDS011;6052;53.246;10.368;2024-01-11T06:02:16;25.77;;;11.73;;
11984;SDS011;6052;53.246;10.368;2024-01-11T06:04:47;33.33;;;12.80;;
11984;SDS011;6052;53.246;10.368;2024-01-11T06:07:16;31.27;;;13.30;;
11984;SDS011;6052;53.246;10.368;2024-01-11T06:09:48;26.30;;;13.13;;
11984;SDS011;6052;53.246;10.368;2024-01-11T06:12:18;30.77;;;14.03;;
11984;SDS011;6052;53.246;10.368;2024-01-11T06:14:47;29.13;;;13.60;;
11984;SDS011;6052;53.246;10.368;2024-01-11T06:17:17;32.13;;;13.23;;
11984;SDS011;6052;53.246;10.368;2024-01-11T06:19:47;31.27;;;12.50;;
11984;SDS011;6052;53.246;10.368;2024-01-11T06:22:16;29.07;;;13.23;;
11984;SDS011;6052;53.246;10.368;2024-01-11T06:24:49;30.07;;;13.40;;
11984;SDS011;6052;53.246;10.368;2024-01-11T06:27:18;28.47;;;11.83;;
11984;SDS011;6052;53.246;10.368;2024-01-11T06:29:48;30.10;;;13.20;;
11984;SDS011;6052;53.246;10.368;2024-01-11T06:32:15;30.83;;;12.83;;
11984;SDS011;6052;53.246;10.368;2024-01-11T06:34:45;25.10;;;12.23;;
11984;SDS011;6052;53.246;10.368;2024-01-11T06:37:14;34.07;;;13.00;;
11984;SDS011;6052;53.246;10.368;2024-01-11T06:39:44;27.80;;;12.57;;
11984;SDS011;6052;53.246;10.368;2024-01-11T06:42:16;27.33;;;12.10;;
11984;SDS011;6052;53.246;10.368;2024-01-11T06:44:46;28.50;;;13.47;;
11984;SDS011;6052;53.246;10.368;2024-01-11T06:47:15;31.07;;;14.03;;
11984;SDS011;6052;53.246;10.368;2024-01-11T06:49:45;33.30;;;13.97;;
11984;SDS011;6052;53.246;10.368;2024-01-11T06:52:12;32.90;;;12.80;;
11984;SDS011;6052;53.246;10.368;2024-01-11T06:54:42;34.80;;;15.03;;
11984;SDS011;6052;53.246;10.368;2024-01-11T06:57:11;32.40;;;14.43;;
11984;SDS011;6052;53.246;10.368;2024-01-11T06:59:43;29.40;;;13.17;;
11984;SDS011;6052;53.246;10.368;2024-01-11T07:02:13;30.30;;;13.77;;
11984;SDS011;6052;53.246;10.368;2024-01-11T07:04:43;28.00;;;12.23;;
11984;SDS011;6052;53.246;10.368;2024-01-11T07:07:13;31.67;;;13.70;;
11984;SDS011;6052;53.246;10.368;2024-01-11T07:09:42;30.60;;;13.47;;
11984;SDS011;6052;53.246;10.368;2024-01-11T07:12:12;29.50;;;13.73;;
11984;SDS011;6052;53.246;10.368;2024-01-11T07:14:44;33.43;;;14.67;;
11984;SDS011;6052;53.246;10.368;2024-01-11T07:17:14;37.23;;;14.00;;
11984;SDS011;6052;53.246;10.368;2024-01-11T07:19:44;31.43;;;12.87;;
11984;SDS011;6052;53.246;10.368;2024-01-11T07:22:13;31.70;;;13.73;;
11984;SDS011;6052;53.246;10.368;2024-01-11T07:24:43;39.63;;;15.83;;
11984;SDS011;6052;53.246;10.368;2024-01-11T07:27:13;32.97;;;13.30;;
11984;SDS011;6052;53.246;10.368;2024-01-11T07:29:45;34.80;;;14.43;;
11984;SDS011;6052;53.246;10.368;2024-01-11T07:32:14;37.23;;;13.77;;
11984;SDS011;6052;53.246;10.368;2024-01-11T07:34:44;32.80;;;13.93;;
11984;SDS011;6052;53.246;10.368;2024-01-11T07:37:14;38.47;;;13.97;;
11984;SDS011;6052;53.246;10.368;2024-01-11T07:39:43;44.87;;;15.87;;
11984;SDS011;6052;53.246;10.368;2024-01-11T07:42:13;34.37;;;15.23;;
11984;SDS011;6052;53.246;10.368;2024-01-11T07:44:46;30.73;;;13.90;;
11984;SDS011;6052;53.246;10.368;2024-01-11T07:47:15;37.43;;;15.13;;
11984;SDS011;6052;53.246;10.368;2024-01-11T07:49:45;30.47;;;13.20;;
11984;SDS011;6052;53.246;10.368;2024-01-11T07:52:14;34.30;;;13.70;;
11984;SDS011;6052;53.246;10.368;2024-01-11T07:54:46;33.50;;;13.17;;
11984;SDS011;6052;53.246;10.368;2024-01-11T07:57:16;40.37;;;14.30;;
11984;SDS011;6052;53.246;10.368;2024-01-11T07:59:45;33.73;;;13.90;;
11984;SDS011;6052;53.246;10.368;2024-01-11T08:02:15;32.37;;;13.43;;
11984;SDS011;6052;53.246;10.368;2024-01-11T08:04:45;32.87;;;13.50;;
11984;SDS011;6052;53.246;10.368;2024-01-11T08:07:15;29.27;;;12.67;;
11984;SDS011;6052;53.246;10.368;2024-01-11T08:09:44;37.17;;;14.27;;
11984;SDS011;6052;53.246;10.368;2024-01-11T08:12:14;36.80;;;12.80;;
11984;SDS011;6052;53.246;10.368;2024-01-11T08:14:46;35.17;;;13.43;;
11984;SDS011;6052;53.246;10.368;2024-01-11T08:17:16;26.57;;;11.77;;
11984;SDS011;6052;53.246;10.368;2024-01-11T08:19:46;35.20;;;12.63;;
11984;SDS011;6052;53.246;10.368;2024-01-11T08:22:15;29.53;;;11.87;;
11984;SDS011;6052;53.246;10.368;2024-01-11T08:24:52;30.60;;;12.00;;
11984;SDS011;6052;53.246;10.368;2024-01-11T08:27:22;29.37;;;11.67;;
11984;SDS011;6052;53.246;10.368;2024-01-11T08:29:54;32.63;;;11.80;;
11984;SDS011;6052;53.246;10.368;2024-01-11T08:32:24;25.47;;;11.37;;
11984;SDS011;6052;53.246;10.368;2024-01-11T08:34:57;28.53;;;11.57;;
11984;SDS011;6052;53.246;10.368;2024-01-11T08:37:27;30.63;;;10.37;;
11984;SDS011;6052;53.246;10.368;2024-01-11T08:39:57;28.30;;;12.17;;
11984;SDS011;6052;53.246;10.368;2024-01-11T08:42:26;32.23;;;12.30;;
11984;SDS011;6052;53.246;10.368;2024-01-11T08:44:58;26.47;;;10.63;;
11984;SDS011;6052;53.246;10.368;2024-01-11T08:47:33;30.70;;;11.10;;
11984;SDS011;6052;53.246;10.368;2024-01-11T08:50:05;29.03;;;11.73;;
11984;SDS011;6052;53.246;10.368;2024-01-11T08:52:37;34.00;;;11.37;;
11984;SDS011;6052;53.246;10.368;2024-01-11T08:55:07;29.90;;;11.17;;
11984;SDS011;6052;53.246;10.368;2024-01-11T08:57:39;20.97;;;10.23;;
11984;SDS011;6052;53.246;10.368;2024-01-11T09:00:14;27.80;;;11.53;;
11984;SDS011;6052;53.246;10.368;2024-01-11T09:02:45;30.47;;;11.60;;
11984;SDS011;6052;53.246;10.368;2024-01-11T09:05:15;28.77;;;10.87;;
11984;SDS011;6052;53.246;10.368;2024-01-11T09:07:44;24.60;;;10.43;;
11984;SDS011;6052;53.246;10.368;2024-01-11T09:10:16;22.33;;;9.43;;
11984;SDS011;6052;53.246;10.368;2024-01-11T09:12:46;28.67;;;10.53;;
11984;SDS011;6052;53.246;10.368;2024-01-11T09:15:18;28.63;;;10.67;;
11984;SDS011;6052;53.246;10.368;2024-01-11T09:17:48;28.60;;;10.37;;
11984;SDS011;6052;53.246;10.368;2024-01-11T09:20:18;31.27;;;9.73;;
11984;SDS011;6052;53.246;10.368;2024-01-11T09:22:48;31.23;;;9.63;;
11984;SDS011;6052;53.246;10.368;2024-01-11T09:25:18;29.63;;;9.77;;
11984;SDS011;6052;53.246;10.368;2024-01-11T09:27:47;26.07;;;9.53;;
11984;SDS011;6052;53.246;10.368;2024-01-11T09:30:20;21.03;;;7.93;;
11984;SDS011;6052;53.246;10.368;2024-01-11T09:32:49;16.90;;;7.57;;
11984;SDS011;6052;53.246;10.368;2024-01-11T09:35:19;19.77;;;8.37;;
11984;SDS011;6052;53.246;10.368;2024-01-11T09:37:49;21.57;;;8.37;;
11984;SDS011;6052;53.246;10.368;2024-01-11T09:40:19;18.80;;;7.70;;
11984;SDS011;6052;53.246;10.368;2024-01-11T09:42:49;25.13;;;7.97;;
11984;SDS011;6052;53.246;10.368;2024-01-11T09:45:21;23.23;;;7.93;;
11984;SDS011;6052;53.246;10.368;2024-01-11T09:47:51;17.73;;;7.40;;
11984;SDS011;6052;53.246;10.368;2024-01-11T09:50:21;23.27;;;7.90;;
11984;SDS011;6052;53.246;10.368;2024-01-11T09:52:52;20.33;;;9.07;;
11984;SDS011;6052;53.246;10.368;2024-01-11T09:55:22;22.87;;;8.70;;
11984;SDS011;6052;53.246;10.368;2024-01-11T09:57:52;22.83;;;8.77;;
11984;SDS011;6052;53.246;10.368;2024-01-11T10:00:28;20.63;;;8.93;;
11984;SDS011;6052;53.246;10.368;2024-01-11T10:02:58;24.17;;;8.63;;
11984;SDS011;6052;53.246;10.368;2024-01-11T10:05:29;21.27;;;8.00;;
11984;SDS011;6052;53.246;10.368;2024-01-11T10:07:59;25.40;;;9.50;;
11984;SDS011;6052;53.246;10.368;2024-01-11T10:10:29;22.57;;;9.23;;
11984;SDS011;6052;53.246;10.368;2024-01-11T10:12:59;25.50;;;9.33;;
11984;SDS011;6052;53.246;10.368;2024-01-11T10:15:31;28.37;;;10.03;;
11984;SDS011;6052;53.246;10.368;2024-01-11T10:18:01;24.10;;;9.03;;
11984;SDS011;6052;53.246;10.368;2024-01-11T10:20:31;21.67;;;9.23;;
11984;SDS011;6052;53.246;10.368;2024-01-11T10:23:02;25.20;;;9.37;;
11984;SDS011;6052;53.246;10.368;2024-01-11T10:25:32;25.63;;;9.27;;
11984;SDS011;6052;53.246;10.368;2024-01-11T10:28:02;29.50;;;9.70;;
11984;SDS011;6052;53.246;10.368;2024-01-11T10:30:32;27.60;;;9.57;;
11984;SDS011;6052;53.246;10.368;2024-01-11T10:33:03;27.27;;;10.63;;
11984;SDS011;6052;53.246;10.368;2024-01-11T10:35:33;21.37;;;9.03;;
11984;SDS011;6052;53.246;10.368;2024-01-11T10:38:04;27.37;;;10.80;;
11984;SDS011;6052;53.246;10.368;2024-01-11T10:40:39;22.03;;;9.07;;
11984;SDS011;6052;53.246;10.368;2024-01-11T10:43:10;26.27;;;10.27;;
11984;SDS011;6052;53.246;10.368;2024-01-11T10:45:44;27.03;;;10.07;;
11984;SDS011;6052;53.246;10.368;2024-01-11T10:48:20;24.47;;;9.37;;
11984;SDS011;6052;53.246;10.368;2024-01-11T10:50:54;25.03;;;10.43;;
11984;SDS011;6052;53.246;10.368;2024-01-11T10:53:28;24.37;;;9.17;;
11984;SDS011;6052;53.246;10.368;2024-01-11T10:56:05;28.70;;;9.80;;
11984;SDS011;6052;53.246;10.368;2024-01-11T10:58:36;23.47;;;9.37;;
11984;SDS011;6052;53.246;10.368;2024-01-11T11:01:08;28.00;;;10.43;;
11984;SDS011;6052;53.246;10.368;2024-01-11T11:03:40;31.63;;;10.33;;
11984;SDS011;6052;53.246;10.368;2024-01-11T11:06:12;27.77;;;10.70;;
11984;SDS011;6052;53.246;10.368;2024-01-11T11:08:43;29.90;;;9.93;;
11984;SDS011;6052;53.246;10.368;2024-01-11T11:11:14;24.87;;;10.63;;
11984;SDS011;6052;53.246;10.368;2024-01-11T11:13:46;26.33;;;9.83;;
11984;SDS011;6052;53.246;10.368;2024-01-11T11:16:19;27.70;;;10.30;;
11984;SDS011;6052;53.246;10.368;2024-01-11T11:18:48;27.77;;;10.57;;
11984;SDS011;6052;53.246;10.368;2024-01-11T11:21:21;25.43;;;10.83;;
11984;SDS011;6052;53.246;10.368;2024-01-11T11:23:51;22.17;;;10.17;;
11984;SDS011;6052;53.246;10.368;2024-01-11T11:26:20;27.67;;;10.90;;
11984;SDS011;6052;53.246;10.368;2024-01-11T11:28:50;24.77;;;9.97;;
11984;SDS011;6052;53.246;10.368;2024-01-11T11:31:41;28.00;;;10.57;;
11984;SDS011;6052;53.246;10.368;2024-01-11T11:34:12;27.63;;;10.50;;
11984;SDS011;6052;53.246;10.368;2024-01-11T11:36:44;26.30;;;10.33;;
11984;SDS011;6052;53.246;10.368;2024-01-11T11:39:16;22.93;;;10.23;;
11984;SDS011;6052;53.246;10.368;2024-01-11T11:41:46;23.80;;;9.20;;
11984;SDS011;6052;53.246;10.368;2024-01-11T11:44:16;26.50;;;9.10;;
11984;SDS011;6052;53.246;10.368;2024-01-11T11:46:51;21.80;;;9.47;;
11984;SDS011;6052;53.246;10.368;2024-01-11T11:49:21;18.43;;;8.77;;
11984;SDS011;6052;53.246;10.368;2024-01-11T11:52:16;23.43;;;8.93;;
11984;SDS011;6052;53.246;10.368;2024-01-11T11:54:46;23.10;;;9.33;;
11984;SDS011;6052;53.246;10.368;2024-01-11T11:57:16;22.07;;;9.03;;
11984;SDS011;6052;53.246;10.368;2024-01-11T11:59:47;22.27;;;8.90;;
11984;SDS011;6052;53.246;10.368;2024-01-11T12:02:18;25.17;;;8.50;;
11984;SDS011;6052;53.246;10.368;2024-01-11T12:04:50;21.23;;;7.33;;
11984;SDS011;6052;53.246;10.368;2024-01-11T12:07:22;21.63;;;8.90;;
11984;SDS011;6052;53.246;10.368;2024-01-11T12:09:52;20.53;;;8.97;;
11984;SDS011;6052;53.246;10.368;2024-01-11T12:12:22;22.97;;;8.47;;
11984;SDS011;6052;53.246;10.368;2024-01-11T12:14:53;22.37;;;9.30;;
11984;SDS011;6052;53.246;10.368;2024-01-11T12:17:22;16.63;;;8.10;;
11984;SDS011;6052;53.246;10.368;2024-01-11T12:19:53;17.50;;;7.77;;
11984;SDS011;6052;53.246;10.368;2024-01-11T12:22:25;18.27;;;6.57;;
11984;SDS011;6052;53.246;10.368;2024-01-11T12:24:55;18.03;;;8.17;;
11984;SDS011;6052;53.246;10.368;2024-01-11T12:27:25;23.63;;;8.87;;
11984;SDS011;6052;53.246;10.368;2024-01-11T12:29:55;18.90;;;8.37;;
11984;SDS011;6052;53.246;10.368;2024-01-11T12:32:25;21.50;;;8.97;;
11984;SDS011;6052;53.246;10.368;2024-01-11T12:34:57;22.20;;;8.37;;
11984;SDS011;6052;53.246;10.368;2024-01-11T12:37:29;22.37;;;7.67;;
11984;SDS011;6052;53.246;10.368;2024-01-11T12:39:59;20.43;;;8.43;;
11984;SDS011;6052;53.246;10.368;2024-01-11T12:42:29;19.97;;;8.03;;
11984;SDS011;6052;53.246;10.368;2024-01-11T12:44:59;20.63;;;7.50;;
11984;SDS011;6052;53.246;10.368;2024-01-11T12:47:29;22.03;;;8.67;;
11984;SDS011;6052;53.246;10.368;2024-01-11T12:49:59;21.67;;;8.43;;
11984;SDS011;6052;53.246;10.368;2024-01-11T12:52:31;17.90;;;7.50;;
11984;SDS011;6052;53.246;10.368;2024-01-11T12:55:00;19.87;;;7.73;;
11984;SDS011;6052;53.246;10.368;2024-01-11T12:57:31;20.97;;;7.17;;
11984;SDS011;6052;53.246;10.368;2024-01-11T13:00:08;21.00;;;8.50;;
11984;SDS011;6052;53.246;10.368;2024-01-11T13:02:39;18.87;;;8.73;;
11984;SDS011;6052;53.246;10.368;2024-01-11T13:05:10;23.30;;;7.53;;
11984;SDS011;6052;53.246;10.368;2024-01-11T13:07:44;20.63;;;8.83;;
11984;SDS011;6052;53.246;10.368;2024-01-11T13:10:13;18.07;;;8.00;;
11984;SDS011;6052;53.246;10.368;2024-01-11T13:12:43;19.10;;;8.00;;
11984;SDS011;6052;53.246;10.368;2024-01-11T13:15:22;17.23;;;8.03;;
11984;SDS011;6052;53.246;10.368;2024-01-11T13:17:52;23.37;;;8.53;;
11984;SDS011;6052;53.246;10.368;2024-01-11T13:20:22;20.53;;;7.90;;
11984;SDS011;6052;53.246;10.368;2024-01-11T13:25:47;22.60;;;8.43;;
11984;SDS011;6052;53.246;10.368;2024-01-11T13:28:18;22.20;;;9.70;;
11984;SDS011;6052;53.246;10.368;2024-01-11T13:30:48;20.67;;;8.90;;
11984;SDS011;6052;53.246;10.368;2024-01-11T13:33:17;23.83;;;9.07;;
11984;SDS011;6052;53.246;10.368;2024-01-11T13:35:50;25.80;;;9.97;;
11984;SDS011;6052;53.246;10.368;2024-01-11T13:38:23;19.83;;;8.60;;
11984;SDS011;6052;53.246;10.368;2024-01-11T13:40:53;26.03;;;10.03;;
11984;SDS011;6052;53.246;10.368;2024-01-11T13:43:22;24.47;;;10.47;;
11984;SDS011;6052;53.246;10.368;2024-01-11T13:45:52;21.90;;;8.90;;
11984;SDS011;6052;53.246;10.368;2024-01-11T13:48:22;22.60;;;10.33;;
11984;SDS011;6052;53.246;10.368;2024-01-11T13:50:51;27.20;;;9.77;;
11984;SDS011;6052;53.246;10.368;2024-01-11T13:53:24;23.97;;;9.50;;
11984;SDS011;6052;53.246;10.368;2024-01-11T13:55:54;22.97;;;9.10;;
11984;SDS011;6052;53.246;10.368;2024-01-11T13:58:23;23.90;;;10.00;;
11984;SDS011;6052;53.246;10.368;2024-01-11T14:00:53;22.33;;;8.97;;
11984;SDS011;6052;53.246;10.368;2024-01-11T14:03:24;22.23;;;10.43;;
11984;SDS011;6052;53.246;10.368;2024-01-11T14:05:53;24.40;;;8.60;;
11984;SDS011;6052;53.246;10.368;2024-01-11T14:08:26;29.63;;;10.03;;
11984;SDS011;6052;53.246;10.368;2024-01-11T14:10:56;22.07;;;8.93;;
11984;SDS011;6052;53.246;10.368;2024-01-11T14:13:26;26.77;;;9.60;;
11984;SDS011;6052;53.246;10.368;2024-01-11T14:15:55;26.33;;;8.97;;
11984;SDS011;6052;53.246;10.368;2024-01-11T14:18:25;21.60;;;10.50;;
11984;SDS011;6052;53.246;10.368;2024-01-11T14:20:55;26.43;;;10.43;;
11984;SDS011;6052;53.246;10.368;2024-01-11T14:23:27;20.47;;;9.10;;
11984;SDS011;6052;53.246;10.368;2024-01-11T14:25:56;26.03;;;9.20;;
11984;SDS011;6052;53.246;10.368;2024-01-11T14:28:26;26.70;;;10.50;;
11984;SDS011;6052;53.246;10.368;2024-01-11T14:30:56;24.17;;;9.57;;
11984;SDS011;6052;53.246;10.368;2024-01-11T14:33:25;29.97;;;11.10;;
11984;SDS011;6052;53.246;10.368;2024-01-11T14:35:55;25.50;;;8.93;;
11984;SDS011;6052;53.246;10.368;2024-01-11T14:38:22;28.03;;;9.90;;
11984;SDS011;6052;53.246;10.368;2024-01-11T14:40:55;20.87;;;8.43;;
11984;SDS011;6052;53.246;10.368;2024-01-11T14:43:25;26.33;;;10.47;;
11984;SDS011;6052;53.246;10.368;2024-01-11T14:45:54;25.77;;;10.17;;
11984;SDS011;6052;53.246;10.368;2024-01-11T14:48:24;27.93;;;11.37;;
11984;SDS011;6052;53.246;10.368;2024-01-11T14:50:57;29.20;;;12.50;;